Time;durP1;ratioP1;P1;durP2;ratioP2;P2;SDS_P1;SDS_P2;PMS_P1;PMS_P2;Temp;Humidity;BMP_temperature;BMP_pressure;BME280_temperature;BME280_humidity;BME280_pressure;Samples;Min_cycle;Max_cycle;Signal;HPM_P1;HPM_P2
2022/04/03 00:01:25;;;;;;;18.85;11.35;;;;;;;5.19;66.34;98808.00;4485064;32;33485;-75
2022/04/03 00:03:54;;;;;;;17.48;10.55;;;;;;;5.32;65.52;98804.53;4484982;32;33713;-75
2022/04/03 00:06:22;;;;;;;17.75;10.52;;;;;;;5.16;65.59;98808.41;4471976;32;33829;-75
2022/04/03 00:08:49;;;;;;;16.35;10.48;;;;;;;5.13;65.91;98810.69;4471743;32;33852;-76
2022/04/03 00:11:17;;;;;;;18.20;10.43;;;;;;;5.27;65.41;98816.00;4485899;32;34036;-75
2022/04/03 00:13:44;;;;;;;17.17;9.27;;;;;;;5.08;65.68;98811.25;4458065;32;33267;-76
2022/04/03 00:16:12;;;;;;;15.65;9.30;;;;;;;5.11;65.60;98813.59;4484591;32;34423;-75
2022/04/03 00:18:40;;;;;;;16.58;9.55;;;;;;;5.04;65.78;98822.72;4484665;32;34675;-76
2022/04/03 00:21:08;;;;;;;15.10;9.23;;;;;;;4.99;65.95;98819.75;4484477;32;33713;-75
2022/04/03 00:23:38;;;;;;;14.75;8.23;;;;;;;5.05;65.61;98821.69;4484588;32;32228;-75
2022/04/03 00:26:06;;;;;;;13.57;8.05;;;;;;;4.93;65.76;98826.81;4471896;32;33645;-76
2022/04/03 00:28:33;;;;;;;15.18;9.00;;;;;;;4.94;65.88;98828.47;4484801;32;33325;-75
2022/04/03 00:31:04;;;;;;;14.27;8.43;;;;;;;5.01;65.57;98829.38;4485821;32;32915;-75
2022/04/03 00:33:35;;;;;;;14.27;8.20;;;;;;;4.96;65.96;98826.41;4484806;31;33274;-75
2022/04/03 00:36:05;;;;;;;14.77;8.55;;;;;;;4.93;65.71;98832.22;4485052;31;34400;-75
2022/04/03 00:38:33;;;;;;;14.77;9.10;;;;;;;5.04;65.75;98834.44;4487441;31;34064;-75
2022/04/03 00:41:14;;;;;;;15.77;8.68;;;;;;;5.06;65.53;98828.81;4477437;31;34298;-75
2022/04/03 00:43:43;;;;;;;12.20;7.32;;;;;;;4.94;65.91;98839.34;4474411;31;32298;-75
2022/04/03 00:46:23;;;;;;;13.77;7.90;;;;;;;4.90;65.81;98835.34;4501402;31;35261;-75
2022/04/03 00:49:09;;;;;;;13.65;8.02;;;;;;;4.87;65.96;98846.59;4488517;31;33824;-75
2022/04/03 00:51:37;;;;;;;14.80;8.73;;;;;;;4.77;66.36;98849.63;4474413;31;34382;-75
2022/04/03 00:54:06;;;;;;;15.07;8.95;;;;;;;4.88;66.09;98846.41;4486202;31;34640;-75
2022/04/03 00:56:40;;;;;;;16.05;9.32;;;;;;;4.82;66.09;98847.19;4483454;31;35134;-75
2022/04/03 00:59:09;;;;;;;15.95;9.02;;;;;;;4.93;65.88;98849.38;4470363;31;32451;-75
2022/04/03 01:01:49;;;;;;;17.00;9.70;;;;;;;4.92;65.68;98858.59;4479407;31;33409;-75
2022/04/03 01:04:22;;;;;;;16.15;10.10;;;;;;;4.87;66.03;98858.31;4466679;31;33649;-75
2022/04/03 01:06:50;;;;;;;16.08;9.35;;;;;;;5.14;65.31;98861.31;4478647;31;34318;-75
2022/04/03 01:09:18;;;;;;;16.23;9.02;;;;;;;5.03;65.51;98861.81;4493776;31;34679;-76
2022/04/03 01:11:45;;;;;;;16.75;9.65;;;;;;;5.05;65.71;98865.19;4479270;31;33935;-76
2022/04/03 01:14:39;;;;;;;16.25;9.88;;;;;;;4.89;66.19;98869.84;4478206;31;34632;-75
2022/04/03 01:17:10;;;;;;;18.95;10.57;;;;;;;5.10;65.40;98874.47;4469889;31;33064;-75
2022/04/03 01:19:38;;;;;;;16.20;10.07;;;;;;;5.04;65.74;98877.09;4485869;31;34055;-75
2022/04/03 01:22:12;;;;;;;16.42;9.70;;;;;;;4.96;65.84;98878.91;4474560;31;33410;-75
2022/04/03 01:24:57;;;;;;;14.80;9.52;;;;;;;5.01;65.82;98872.06;4484633;31;33739;-75
2022/04/03 01:27:25;;;;;;;17.08;9.68;;;;;;;5.17;65.37;98877.25;4468960;32;34324;-75
2022/04/03 01:29:53;;;;;;;15.23;9.38;;;;;;;5.10;65.47;98879.91;4473652;31;34174;-75
2022/04/03 01:32:20;;;;;;;16.45;9.07;;;;;;;5.01;65.93;98889.22;4483505;31;33489;-75
2022/04/03 01:34:50;;;;;;;17.42;10.25;;;;;;;5.12;65.23;98880.53;4492600;31;33801;-75
2022/04/03 01:37:18;;;;;;;15.63;9.00;;;;;;;5.21;65.09;98886.66;4483429;31;34456;-76
2022/04/03 01:39:46;;;;;;;17.55;9.35;;;;;;;5.08;65.49;98890.13;4471431;31;32167;-75
2022/04/03 01:42:16;;;;;;;17.02;9.93;;;;;;;5.27;65.05;98894.91;4492143;31;33658;-75
2022/04/03 01:44:44;;;;;;;16.92;9.80;;;;;;;5.21;65.13;98886.66;4476249;31;33582;-75
2022/04/03 01:47:12;;;;;;;16.23;9.65;;;;;;;5.15;65.01;98893.75;4482606;31;35294;-75
2022/04/03 01:49:39;;;;;;;19.23;10.23;;;;;;;5.20;64.94;98894.00;4485416;31;34533;-75
2022/04/03 01:52:07;;;;;;;16.40;9.88;;;;;;;5.27;64.98;98903.06;4484659;31;33657;-75
2022/04/03 01:54:40;;;;;;;17.05;10.25;;;;;;;5.07;65.50;98910.19;4482962;31;33736;-75
2022/04/03 01:57:08;;;;;;;17.45;10.15;;;;;;;5.21;65.26;98906.56;4471484;31;33110;-75
2022/04/03 01:59:40;;;;;;;16.12;10.23;;;;;;;5.29;64.92;98919.19;4483460;31;34674;-75
2022/04/03 02:02:08;;;;;;;16.70;10.10;;;;;;;5.22;64.98;98915.56;4485133;31;33271;-75
2022/04/03 02:04:37;;;;;;;17.45;10.85;;;;;;;5.15;65.07;98918.22;4487339;31;33905;-75
2022/04/03 02:07:11;;;;;;;20.30;10.43;;;;;;;5.21;65.18;98916.59;4486394;31;34444;-75
2022/04/03 02:09:38;;;;;;;19.08;10.93;;;;;;;5.34;64.65;98922.16;4471333;31;33485;-75
2022/04/03 02:12:06;;;;;;;18.83;9.85;;;;;;;5.32;64.60;98928.84;4486271;31;33481;-75
2022/04/03 02:14:34;;;;;;;18.30;10.45;;;;;;;5.27;64.68;98921.25;4482671;32;33597;-75
2022/04/03 02:17:01;;;;;;;19.80;10.90;;;;;;;5.25;64.78;98921.44;4459753;31;34313;-75
2022/04/03 02:19:29;;;;;;;15.75;8.90;;;;;;;5.38;64.34;98928.91;4457726;31;33328;-75
2022/04/03 02:22:00;;;;;;;15.63;8.85;;;;;;;5.40;64.38;98915.94;4502298;31;33991;-75
2022/04/03 02:24:27;;;;;;;17.05;8.95;;;;;;;5.37;63.66;98919.06;4485501;32;33875;-75
2022/04/03 02:27:00;;;;;;;30.45;16.48;;;;;;;4.93;64.82;98925.50;4472653;32;34591;-75
2022/04/03 02:29:28;;;;;;;17.00;10.10;;;;;;;4.86;65.22;98923.75;4472012;32;32537;-75
2022/04/03 02:31:56;;;;;;;18.58;10.60;;;;;;;4.68;66.18;98929.59;4486837;32;33571;-75
2022/04/03 02:34:26;;;;;;;18.75;10.10;;;;;;;4.85;65.01;98933.78;4472795;32;33683;-75
2022/04/03 02:36:53;;;;;;;14.32;8.63;;;;;;;4.92;65.39;98934.72;4472764;32;34345;-75
2022/04/03 02:39:21;;;;;;;11.75;6.97;;;;;;;4.90;65.60;98941.37;4486836;32;33987;-75
2022/04/03 02:41:49;;;;;;;11.68;6.37;;;;;;;4.76;65.98;98945.81;4459872;32;33213;-76
2022/04/03 02:44:18;;;;;;;13.25;6.97;;;;;;;5.03;65.05;98951.56;4459663;32;33605;-75
2022/04/03 02:46:46;;;;;;;10.73;6.35;;;;;;;5.00;65.30;98954.66;4472859;32;34372;-76
2022/04/03 02:49:13;;;;;;;10.88;6.32;;;;;;;5.05;65.15;98944.06;4459839;32;34114;-76
2022/04/03 02:51:41;;;;;;;10.68;6.65;;;;;;;5.09;65.09;98958.97;4472379;32;31962;-75
2022/04/03 02:54:09;;;;;;;11.30;6.90;;;;;;;5.12;65.07;98958.56;4472498;32;34461;-76
2022/04/03 02:56:39;;;;;;;11.93;6.87;;;;;;;5.10;64.92;98957.91;4486642;32;34394;-75
2022/04/03 02:59:10;;;;;;;10.77;5.90;;;;;;;5.05;65.01;98958.50;4471954;32;32501;-75
2022/04/03 03:01:41;;;;;;;9.38;5.37;;;;;;;5.13;65.04;98965.69;4446955;32;33510;-75
2022/04/03 03:04:13;;;;;;;9.02;5.12;;;;;;;4.86;65.58;98968.09;4471526;32;33606;-75
2022/04/03 03:06:41;;;;;;;8.93;5.18;;;;;;;4.97;65.08;98972.19;4458549;32;35315;-76
2022/04/03 03:09:09;;;;;;;8.63;5.20;;;;;;;5.14;64.78;98970.09;4472020;32;32296;-75
2022/04/03 03:11:40;;;;;;;10.25;5.05;;;;;;;5.14;64.97;98981.81;4471031;32;33621;-75
2022/04/03 03:14:08;;;;;;;9.38;4.87;;;;;;;5.21;64.72;98979.16;4471990;32;33821;-76
2022/04/03 03:16:35;;;;;;;9.23;4.97;;;;;;;4.84;65.38;98986.47;4469811;32;33061;-75
2022/04/03 03:19:03;;;;;;;10.43;5.65;;;;;;;5.04;64.97;98986.72;4484269;32;33781;-75
2022/04/03 03:21:31;;;;;;;10.70;5.70;;;;;;;5.09;64.97;98997.03;4470104;32;34189;-76
2022/04/03 03:23:58;;;;;;;8.23;4.93;;;;;;;5.22;64.60;98987.13;4456954;32;32134;-78
2022/04/03 03:26:26;;;;;;;8.02;5.05;;;;;;;5.30;64.46;98999.75;4457224;32;35016;-76
2022/04/03 03:28:54;;;;;;;8.73;5.07;;;;;;;5.25;64.57;99004.94;4469831;32;34482;-76
2022/04/03 03:31:21;;;;;;;9.10;5.32;;;;;;;5.29;64.67;99000.78;4457511;32;33333;-75
2022/04/03 03:33:50;;;;;;;8.60;5.40;;;;;;;5.45;66.64;99016.03;4471934;32;33253;-78
2022/04/03 03:36:18;;;;;;;9.45;5.35;;;;;;;5.49;65.61;99023.63;4459166;32;34285;-76
2022/04/03 03:38:49;;;;;;;8.75;5.25;;;;;;;5.54;64.78;99021.19;4471978;32;33923;-76
2022/04/03 03:41:16;;;;;;;9.48;6.15;;;;;;;5.53;64.65;99024.94;4471877;32;34168;-75
2022/04/03 03:43:44;;;;;;;8.52;5.62;;;;;;;5.41;64.51;99021.03;4471670;32;32265;-75
2022/04/03 03:46:14;;;;;;;10.63;6.40;;;;;;;5.46;64.40;99018.56;4458643;32;32973;-75
2022/04/03 03:48:41;;;;;;;9.98;5.30;;;;;;;5.42;64.70;99027.31;4471937;32;33890;-75
2022/04/03 03:51:09;;;;;;;11.25;6.12;;;;;;;5.34;64.53;99024.72;4472009;32;34087;-75
2022/04/03 03:53:37;;;;;;;9.93;5.43;;;;;;;5.32;64.49;99027.63;4458851;32;32287;-75
2022/04/03 03:56:05;;;;;;;10.40;5.62;;;;;;;5.26;64.61;99022.94;4471893;32;34360;-75
2022/04/03 03:58:37;;;;;;;10.07;5.57;;;;;;;5.31;64.46;99039.53;4472169;32;33461;-75
2022/04/03 04:01:05;;;;;;;10.15;5.32;;;;;;;5.13;64.94;99041.84;4458932;32;31832;-75
2022/04/03 04:03:35;;;;;;;11.25;5.78;;;;;;;5.21;64.82;99049.88;4486028;32;34509;-75
2022/04/03 04:06:03;;;;;;;9.85;5.68;;;;;;;5.21;64.68;99049.88;4486089;32;34435;-75
2022/04/03 04:08:30;;;;;;;8.32;4.93;;;;;;;5.17;65.00;99052.16;4471629;32;32575;-75
2022/04/03 04:10:58;;;;;;;9.43;5.35;;;;;;;5.30;64.56;99063.19;4486007;32;33667;-75
2022/04/03 04:13:31;;;;;;;9.25;5.32;;;;;;;5.32;64.51;99064.88;4472700;31;33786;-74
2022/04/03 04:16:02;;;;;;;11.18;5.65;;;;;;;5.19;64.89;99076.44;4458835;32;33858;-75
2022/04/03 04:18:32;;;;;;;9.15;5.28;;;;;;;5.13;64.86;99075.34;4471648;32;32504;-75
2022/04/03 04:21:03;;;;;;;9.07;5.62;;;;;;;5.16;64.56;99074.09;4471464;32;32835;-75
2022/04/03 04:23:31;;;;;;;11.38;5.53;;;;;;;5.19;64.78;99076.44;4458899;32;33267;-75
2022/04/03 04:25:59;;;;;;;10.38;5.57;;;;;;;5.28;64.64;99075.28;4471819;32;35294;-75
2022/04/03 04:28:27;;;;;;;7.93;4.62;;;;;;;4.99;65.57;99087.06;4484225;32;33961;-75
2022/04/03 04:30:57;;;;;;;7.90;4.53;;;;;;;5.04;65.24;99089.22;4471822;32;34097;-75
2022/04/03 04:33:30;;;;;;;8.88;5.12;;;;;;;5.17;64.91;99095.69;4472522;32;34335;-75
2022/04/03 04:35:58;;;;;;;8.45;5.45;;;;;;;4.91;65.46;99098.88;4485786;32;35257;-75
2022/04/03 04:38:26;;;;;;;9.98;5.47;;;;;;;4.95;65.17;99099.34;4472111;32;33914;-75
2022/04/03 04:40:54;;;;;;;10.25;5.65;;;;;;;5.00;65.12;99110.50;4471821;32;33215;-75
2022/04/03 04:43:22;;;;;;;9.48;5.28;;;;;;;5.13;65.01;99115.28;4458686;32;32324;-75
2022/04/03 04:45:50;;;;;;;9.77;5.10;;;;;;;5.07;65.23;99121.47;4458539;32;32993;-75
2022/04/03 04:48:19;;;;;;;8.07;5.00;;;;;;;5.33;64.30;99126.41;4458512;32;32625;-76
2022/04/03 04:50:48;;;;;;;7.37;4.65;;;;;;;5.06;64.84;99128.78;4458579;32;31823;-75
2022/04/03 04:53:21;;;;;;;9.13;5.50;;;;;;;5.11;64.79;99128.22;4472112;32;34526;-75
2022/04/03 04:55:51;;;;;;;8.02;4.93;;;;;;;5.06;65.04;99127.94;4484609;32;34401;-75
2022/04/03 04:58:18;;;;;;;9.23;5.47;;;;;;;5.08;65.11;99132.16;4471793;32;33859;-76
2022/04/03 05:00:47;;;;;;;8.32;5.15;;;;;;;5.04;65.18;99143.59;4458872;32;34202;-75
2022/04/03 05:03:14;;;;;;;14.55;7.82;;;;;;;5.07;65.41;99144.06;4458437;32;32117;-76
2022/04/03 05:05:43;;;;;;;10.55;5.95;;;;;;;5.02;65.73;99145.66;4471356;32;34272;-75
2022/04/03 05:08:10;;;;;;;11.77;7.20;;;;;;;4.99;66.14;99151.47;4471412;32;33943;-75
2022/04/03 05:10:38;;;;;;;11.82;6.15;;;;;;;4.87;66.12;99160.09;4458597;32;33207;-75
2022/04/03 05:13:09;;;;;;;8.90;5.18;;;;;;;4.70;66.62;99150.41;4458516;32;34115;-75
2022/04/03 05:15:36;;;;;;;9.07;5.43;;;;;;;4.96;65.97;99158.12;4458334;32;34252;-75
2022/04/03 05:18:05;;;;;;;9.43;6.10;;;;;;;4.85;66.22;99162.16;4458283;32;32544;-75
2022/04/03 05:20:33;;;;;;;11.25;6.93;;;;;;;5.02;66.03;99168.25;4445260;32;31904;-75
2022/04/03 05:23:00;;;;;;;11.77;7.50;;;;;;;5.05;65.77;99175.22;4471251;32;34166;-75
2022/04/03 05:25:28;;;;;;;9.95;6.60;;;;;;;4.90;66.43;99175.19;4471026;32;35049;-75
2022/04/03 05:27:56;;;;;;;8.98;5.57;;;;;;;5.08;65.88;99183.00;4445411;32;32297;-75
2022/04/03 05:30:23;;;;;;;6.28;4.15;;;;;;;4.97;65.96;99181.56;4458272;32;33315;-75
2022/04/03 05:32:51;;;;;;;7.95;4.40;;;;;;;4.75;66.85;99185.19;4471200;32;33686;-75
2022/04/03 05:35:18;;;;;;;6.87;3.65;;;;;;;4.88;65.93;99188.97;4471993;32;35191;-76
2022/04/03 05:37:46;;;;;;;6.10;3.60;;;;;;;4.73;66.62;99198.13;4487268;32;34169;-75
2022/04/03 05:40:15;;;;;;;5.85;3.42;;;;;;;4.64;66.94;99192.75;4487072;32;33172;-76
2022/04/03 05:42:43;;;;;;;7.62;4.50;;;;;;;4.49;67.71;99204.62;4473161;32;33725;-76
2022/04/03 05:45:11;;;;;;;8.63;5.22;;;;;;;4.68;67.16;99208.69;4472871;32;34489;-76
2022/04/03 05:47:42;;;;;;;7.22;4.05;;;;;;;4.94;66.25;99207.25;4473268;32;34017;-76
2022/04/03 05:50:12;;;;;;;7.37;4.30;;;;;;;4.58;67.19;99211.66;4472947;32;33414;-76
2022/04/03 05:52:47;;;;;;;7.78;4.37;;;;;;;4.50;67.72;99217.19;4460042;32;34384;-76
2022/04/03 05:55:17;;;;;;;6.90;4.18;;;;;;;4.51;67.66;99218.88;4454600;32;33025;-76
2022/04/03 05:57:46;;;;;;;7.68;4.50;;;;;;;4.84;66.50;99212.12;4455705;32;34616;-76
2022/04/03 06:00:16;;;;;;;7.78;4.45;;;;;;;5.01;65.95;99218.25;4441387;32;31789;-76
2022/04/03 06:02:53;;;;;;;7.62;4.28;;;;;;;4.61;66.93;99216.72;4453175;32;33842;-77
2022/04/03 06:05:22;;;;;;;7.93;4.57;;;;;;;4.87;67.30;99219.06;4454426;32;34503;-75
2022/04/03 06:07:57;;;;;;;9.75;5.50;;;;;;;5.25;65.73;99222.56;4454580;32;34688;-76
2022/04/03 06:10:25;;;;;;;9.20;6.20;;;;;;;5.02;65.98;99233.53;4454426;32;33999;-76
2022/04/03 06:13:01;;;;;;;10.68;6.68;;;;;;;5.00;65.98;99227.44;4441714;32;33695;-76
2022/04/03 06:15:43;;;;;;;16.08;9.32;;;;;;;4.87;66.15;99238.09;4454250;32;35320;-75
2022/04/03 06:18:13;;;;;;;11.60;7.20;;;;;;;4.39;67.65;99245.63;4453717;32;34109;-76
2022/04/03 06:20:41;;;;;;;12.88;7.80;;;;;;;4.51;67.43;99246.91;4454394;32;33244;-76
2022/04/03 06:23:19;;;;;;;13.38;7.75;;;;;;;4.72;66.37;99251.63;4441436;32;33175;-77
2022/04/03 06:25:57;;;;;;;12.10;6.95;;;;;;;4.57;67.16;99245.28;4454546;32;34776;-76
2022/04/03 06:28:25;;;;;;;11.88;7.53;;;;;;;4.80;66.13;99262.44;4454143;32;33845;-76
2022/04/03 06:30:55;;;;;;;13.73;7.55;;;;;;;4.24;67.86;99256.41;4441572;32;31862;-76
2022/04/03 06:33:26;;;;;;;12.43;7.90;;;;;;;4.66;66.65;99268.66;4454321;32;34639;-76
2022/04/03 06:35:57;;;;;;;12.18;6.97;;;;;;;4.69;66.32;99267.47;4454209;32;34442;-76
2022/04/03 06:38:24;;;;;;;16.48;10.55;;;;;;;4.83;66.31;99272.09;4454216;32;33292;-76
2022/04/03 06:40:54;;;;;;;15.52;10.07;;;;;;;4.27;67.80;99276.94;4454134;32;32039;-76
2022/04/03 06:43:27;;;;;;;15.57;9.80;;;;;;;4.53;67.18;99273.88;4454098;32;33986;-75
2022/04/03 06:45:55;;;;;;;15.95;10.48;;;;;;;4.57;66.74;99284.19;4453651;32;35154;-75
2022/04/03 06:48:24;;;;;;;17.20;10.93;;;;;;;3.83;68.58;99285.66;4453920;32;33885;-75
2022/04/03 06:50:51;;;;;;;20.60;12.48;;;;;;;3.93;69.15;99288.12;4453612;32;34295;-75
2022/04/03 06:53:19;;;;;;;24.35;13.98;;;;;;;4.14;69.25;99299.22;4457197;32;33758;-75
2022/04/03 06:55:47;;;;;;;17.52;11.63;;;;;;;4.14;68.46;99293.81;4464207;31;32855;-74
2022/04/03 06:58:14;;;;;;;17.92;11.38;;;;;;;3.94;69.74;99303.41;4501892;31;34870;-75
2022/04/03 07:00:42;;;;;;;18.48;11.20;;;;;;;4.39;68.74;99309.97;4487626;31;34215;-75
2022/04/03 07:03:10;;;;;;;15.27;8.40;;;;;;;4.15;69.20;99308.22;4501448;31;33484;-74
2022/04/03 07:05:40;;;;;;;18.70;11.60;;;;;;;4.67;73.28;99315.72;4473529;31;34317;-75
2022/04/03 07:08:08;;;;;;;17.30;11.38;;;;;;;4.22;70.08;99322.78;4471961;32;34290;-75
2022/04/03 07:10:36;;;;;;;18.62;11.80;;;;;;;4.13;69.32;99313.84;4484908;32;33947;-76
2022/04/03 07:13:05;;;;;;;20.27;11.88;;;;;;;4.02;69.37;99325.09;4485990;32;33696;-81
2022/04/03 07:15:33;;;;;;;20.95;13.10;;;;;;;4.38;68.71;99321.88;4469425;32;32601;-76
2022/04/03 07:18:01;;;;;;;23.33;13.90;;;;;;;3.59;70.78;99330.00;4471751;31;33859;-75
2022/04/03 07:20:31;;;;;;;26.35;15.50;;;;;;;4.21;69.05;99335.53;4483352;31;34164;-76
2022/04/03 07:23:04;;;;;;;28.50;15.98;;;;;;;4.41;67.65;99343.25;4473854;31;32257;-76
2022/04/03 07:25:33;;;;;;;28.33;16.90;;;;;;;3.82;70.21;99349.09;4493807;31;34327;-76
2022/04/03 07:28:04;;;;;;;26.95;16.83;;;;;;;4.15;69.39;99362.53;4492617;31;34048;-75
2022/04/03 07:30:37;;;;;;;27.87;17.62;;;;;;;4.02;68.81;99363.09;4492412;31;34176;-76
2022/04/03 07:33:05;;;;;;;28.75;17.08;;;;;;;3.85;70.36;99364.19;4492155;31;33757;-74
2022/04/03 07:35:38;;;;;;;23.58;15.20;;;;;;;3.55;69.77;99372.06;4486034;31;35040;-74
2022/04/03 07:38:12;;;;;;;34.38;17.87;;;;;;;3.54;69.81;99370.34;4478473;31;33774;-74
2022/04/03 07:40:39;;;;;;;26.65;16.08;;;;;;;4.06;69.10;99388.88;4494640;31;33330;-73
2022/04/03 07:43:28;;;;;;;28.52;17.20;;;;;;;3.46;69.74;99385.78;4486636;31;33723;-74
2022/04/03 07:45:55;;;;;;;34.08;17.00;;;;;;;3.72;68.90;99385.59;4484021;31;34120;-74
2022/04/03 07:48:25;;;;;;;24.33;14.98;;;;;;;3.75;69.57;99387.97;4492215;31;33733;-75
2022/04/03 07:50:56;;;;;;;31.80;16.75;;;;;;;3.81;69.37;99398.13;4480597;31;33898;-74
2022/04/03 07:53:24;;;;;;;30.98;16.05;;;;;;;4.00;68.90;99400.44;4481177;31;32240;-74
2022/04/03 07:55:58;;;;;;;25.00;14.95;;;;;;;3.86;67.99;99410.16;4455422;32;34063;-74
2022/04/03 07:58:27;;;;;;;25.62;14.77;;;;;;;4.11;68.47;99400.06;4490360;31;34582;-75
2022/04/03 08:01:00;;;;;;;23.70;13.62;;;;;;;4.34;67.44;99416.44;4493202;31;34064;-74
2022/04/03 08:03:28;;;;;;;24.95;13.02;;;;;;;4.47;66.27;99418.62;4484854;31;33879;-73
2022/04/03 08:05:55;;;;;;;36.58;21.55;;;;;;;4.45;66.06;99418.78;4481144;31;34539;-75
2022/04/03 08:08:25;;;;;;;29.58;16.62;;;;;;;4.56;66.38;99412.09;4482545;31;34722;-73
2022/04/03 08:10:56;;;;;;;19.02;12.05;;;;;;;4.71;66.33;99432.06;4481394;32;32025;-74
2022/04/03 08:13:27;;;;;;;25.12;14.15;;;;;;;3.73;66.21;99431.56;4494980;31;33657;-73
2022/04/03 08:15:54;;;;;;;20.70;12.55;;;;;;;4.15;66.12;99425.84;4492779;31;34160;-74
2022/04/03 08:18:24;;;;;;;20.37;13.13;;;;;;;3.94;65.84;99434.56;4477276;31;34842;-73
2022/04/03 08:20:54;;;;;;;24.17;12.40;;;;;;;4.19;65.00;99442.66;4476996;31;33600;-73
2022/04/03 08:23:22;;;;;;;21.62;13.65;;;;;;;4.08;64.69;99446.56;4491298;31;33862;-74
2022/04/03 08:25:50;;;;;;;21.42;12.68;;;;;;;4.50;65.46;99446.28;4492642;31;34220;-73
2022/04/03 08:28:18;;;;;;;24.98;12.55;;;;;;;5.15;62.78;99447.78;4476660;31;34631;-74
2022/04/03 08:30:49;;;;;;;28.10;18.83;;;;;;;4.57;62.93;99451.81;4465013;31;31750;-74
2022/04/03 08:33:22;;;;;;;51.58;27.02;;;;;;;4.34;65.03;99456.34;4479136;31;33626;-73
2022/04/03 08:35:51;;;;;;;34.55;18.48;;;;;;;4.68;64.36;99462.31;4477714;31;34116;-73
2022/04/03 08:38:21;;;;;;;22.13;13.57;;;;;;;4.42;64.58;99465.31;4466629;31;32352;-73
2022/04/03 08:40:49;;;;;;;24.60;12.80;;;;;;;4.25;63.07;99469.97;4477443;31;33385;-74
2022/04/03 08:43:20;;;;;;;24.52;12.23;;;;;;;4.41;63.86;99466.34;4478100;31;32276;-73
2022/04/03 08:45:48;;;;;;;19.52;11.52;;;;;;;4.12;63.45;99474.22;4466689;31;34245;-78
2022/04/03 08:48:19;;;;;;;16.20;11.40;;;;;;;4.11;63.39;99480.69;4457173;31;32961;-73
2022/04/03 08:50:50;;;;;;;23.85;13.07;;;;;;;4.20;63.29;99466.06;4471062;31;33364;-73
2022/04/03 08:53:26;;;;;;;21.45;12.98;;;;;;;4.71;63.88;99475.56;4477935;31;32311;-73
2022/04/03 08:55:53;;;;;;;24.00;13.23;;;;;;;4.72;63.31;99476.41;4476759;31;34464;-73
2022/04/03 08:58:21;;;;;;;22.23;12.25;;;;;;;4.25;64.57;99483.53;4492735;31;34153;-73
2022/04/03 09:00:49;;;;;;;22.90;13.57;;;;;;;4.34;65.50;99475.37;4464432;32;32946;-75
2022/04/03 09:03:22;;;;;;;20.55;12.82;;;;;;;4.57;65.27;99484.44;4471307;32;32254;-73
2022/04/03 09:06:11;;;;;;;23.83;14.73;;;;;;;4.58;66.67;99483.41;4485578;32;34565;-73
2022/04/03 09:08:38;;;;;;;21.80;12.73;;;;;;;5.09;64.27;99481.16;4483967;32;33101;-73
2022/04/03 09:11:07;;;;;;;25.15;12.68;;;;;;;4.98;63.14;99479.66;4470624;32;33522;-73
2022/04/03 09:13:36;;;;;;;27.05;16.48;;;;;;;4.87;63.01;99483.63;4484232;32;33106;-73
2022/04/03 09:16:05;;;;;;;23.30;14.40;;;;;;;4.63;63.59;99483.72;4485420;32;34327;-74
2022/04/03 09:18:48;;;;;;;23.17;14.23;;;;;;;5.46;64.64;99483.09;4471587;32;33970;-73
2022/04/03 09:21:26;;;;;;;26.83;14.05;;;;;;;5.59;62.41;99486.06;4485420;32;33000;-73
2022/04/03 09:24:04;;;;;;;28.90;16.65;;;;;;;6.10;61.52;99498.03;4471392;32;33751;-73
2022/04/03 09:26:33;;;;;;;23.85;14.35;;;;;;;6.22;59.64;99499.28;4485353;32;34467;-73
2022/04/03 09:29:07;;;;;;;22.10;12.75;;;;;;;6.66;59.40;99483.97;4458226;32;32552;-73
2022/04/03 09:31:38;;;;;;;23.98;14.82;;;;;;;6.68;58.10;99492.81;4485079;32;33431;-74
2022/04/03 09:34:08;;;;;;;25.62;16.12;;;;;;;6.88;59.63;99494.78;4473114;31;34595;-73
2022/04/03 09:36:36;;;;;;;24.55;13.13;;;;;;;7.18;59.25;99498.28;4492286;31;34395;-73
2022/04/03 09:39:09;;;;;;;24.25;16.10;;;;;;;7.26;57.65;99500.03;4482805;31;34217;-73
2022/04/03 09:42:01;;;;;;;25.95;15.27;;;;;;;7.56;59.72;99503.53;4482208;31;34032;-72
2022/04/03 09:44:29;;;;;;;20.70;13.60;;;;;;;7.97;56.15;99498.22;4490600;31;34299;-73
2022/04/03 09:47:14;;;;;;;23.45;13.07;;;;;;;7.26;56.25;99516.41;4480270;32;35263;-72
2022/04/03 09:49:44;;;;;;;34.85;21.65;;;;;;;7.73;58.12;99512.31;4483765;32;33039;-73
2022/04/03 09:52:36;;;;;;;19.80;12.93;;;;;;;8.00;57.89;99514.22;4493152;31;32533;-73
2022/04/03 09:55:12;;;;;;;23.63;13.03;;;;;;;7.36;56.05;99533.34;4490382;31;33742;-73
2022/04/03 09:57:44;;;;;;;18.75;11.70;;;;;;;7.12;58.26;99520.06;4489950;31;34334;-73
2022/04/03 10:00:41;;;;;;;17.65;11.85;;;;;;;7.67;55.90;99537.69;4470460;31;32548;-70
2022/04/03 10:03:11;;;;;;;19.90;12.30;;;;;;;7.11;55.16;99532.84;4469204;31;31972;-73
2022/04/03 10:05:41;;;;;;;21.30;11.63;;;;;;;7.60;55.01;99524.78;4483187;31;34622;-73
2022/04/03 10:08:10;;;;;;;19.75;12.10;;;;;;;8.25;52.74;99539.25;4485391;31;35220;-73
2022/04/03 10:10:40;;;;;;;17.23;11.30;;;;;;;8.43;52.54;99542.41;4484011;31;34589;-73
2022/04/03 10:13:11;;;;;;;19.42;11.75;;;;;;;7.27;52.86;99526.31;4493401;31;33238;-73
2022/04/03 10:15:39;;;;;;;18.52;11.43;;;;;;;8.03;53.18;99534.84;4470815;32;34527;-73
2022/04/03 10:18:08;;;;;;;18.92;11.95;;;;;;;7.09;51.52;99539.53;4484412;32;34307;-73
2022/04/03 10:20:41;;;;;;;21.60;12.43;;;;;;;7.37;53.04;99532.31;4482740;32;32515;-69
2022/04/03 10:23:11;;;;;;;21.50;12.20;;;;;;;8.34;54.35;99542.72;4483816;32;33412;-73
2022/04/03 10:25:47;;;;;;;26.67;15.48;;;;;;;8.00;50.01;99548.91;4484498;32;34300;-73
2022/04/03 10:28:20;;;;;;;20.05;12.68;;;;;;;7.85;50.20;99552.56;4483318;31;34270;-73
2022/04/03 10:30:58;;;;;;;16.60;10.40;;;;;;;8.57;51.38;99551.50;4480156;31;33927;-73
2022/04/03 10:33:39;;;;;;;16.42;10.63;;;;;;;8.32;47.86;99558.47;4471187;31;33167;-73
2022/04/03 10:36:22;;;;;;;21.08;13.73;;;;;;;8.39;49.31;99552.03;4492031;31;33740;-74
2022/04/03 10:39:04;;;;;;;20.12;13.10;;;;;;;8.56;48.25;99552.56;4483145;31;34218;-74
2022/04/03 10:41:35;;;;;;;15.55;10.70;;;;;;;8.59;48.51;99546.69;4468790;31;33414;-74
2022/04/03 10:44:21;;;;;;;18.95;10.70;;;;;;;9.12;48.63;99550.56;4458312;32;32776;-75
2022/04/03 10:47:04;;;;;;;18.92;10.35;;;;;;;9.07;48.52;99557.72;4474364;31;33809;-74
2022/04/03 10:49:37;;;;;;;17.10;10.43;;;;;;;8.59;47.33;99557.63;4485598;31;32888;-76
2022/04/03 10:52:08;;;;;;;16.92;10.65;;;;;;;9.32;47.53;99553.41;4483346;31;33955;-74
2022/04/03 10:54:49;;;;;;;18.50;10.73;;;;;;;9.40;45.88;99563.34;4470727;32;34374;-74
2022/04/03 10:57:34;;;;;;;18.05;11.35;;;;;;;8.71;45.62;99564.25;4482711;31;33647;-74
2022/04/03 11:00:14;;;;;;;23.58;13.68;;;;;;;8.50;49.45;99547.88;4491614;31;34147;-73
2022/04/03 11:02:52;;;;;;;16.02;10.32;;;;;;;9.15;49.15;99546.59;4481768;31;32489;-74
2022/04/03 11:05:29;;;;;;;18.42;10.88;;;;;;;9.04;45.18;99558.97;4469518;32;33184;-73
2022/04/03 11:07:59;;;;;;;16.73;10.45;;;;;;;8.64;47.99;99562.50;4491724;31;33605;-74
2022/04/03 11:10:59;;;;;;;17.15;10.68;;;;;;;9.25;45.92;99566.22;4483549;32;34174;-75
2022/04/03 11:13:33;;;;;;;17.25;10.18;;;;;;;9.47;46.02;99569.69;4483983;32;33546;-75
2022/04/03 11:16:12;;;;;;;17.73;10.23;;;;;;;8.79;44.18;99572.28;4485291;32;33278;-74
2022/04/03 11:18:49;;;;;;;16.90;10.20;;;;;;;9.01;44.66;99577.69;4466682;31;32164;-75
2022/04/03 11:21:26;;;;;;;18.90;10.52;;;;;;;8.86;45.05;99575.91;4493928;31;34401;-75
2022/04/03 11:24:11;;;;;;;14.75;9.95;;;;;;;8.46;44.61;99583.00;4467047;31;33142;-75
2022/04/03 11:26:41;;;;;;;16.08;10.63;;;;;;;8.89;45.47;99569.19;4481609;31;34033;-75
2022/04/03 11:29:12;;;;;;;17.00;10.75;;;;;;;9.64;46.93;99581.13;4495363;31;33661;-76
2022/04/03 11:31:40;;;;;;;15.80;9.52;;;;;;;9.60;45.34;99579.84;4482125;32;34351;-75
2022/04/03 11:34:12;;;;;;;18.17;10.32;;;;;;;9.44;43.73;99587.38;4484680;31;34676;-78
2022/04/03 11:36:42;;;;;;;15.32;9.98;;;;;;;9.60;44.05;99593.56;4470313;32;31917;-75
2022/04/03 11:39:10;;;;;;;21.60;11.35;;;;;;;9.40;44.88;99588.00;4487792;31;34708;-75
2022/04/03 11:41:39;;;;;;;15.48;9.88;;;;;;;9.50;45.45;99589.31;4484964;31;35187;-75
2022/04/03 11:44:17;;;;;;;14.50;9.07;;;;;;;9.88;43.90;99583.28;4488170;31;34041;-75
2022/04/03 11:46:48;;;;;;;14.55;9.38;;;;;;;9.53;42.94;99597.13;4475353;31;33434;-75
2022/04/03 11:49:25;;;;;;;13.45;9.05;;;;;;;9.50;43.07;99594.78;4470135;32;32127;-74